createdAt,value
2023-03-05T00:01:12.373Z,11.10
2023-03-05T00:03:39.455Z,11.00
2023-03-05T00:06:06.685Z,12.13
2023-03-05T00:08:33.857Z,10.60
2023-03-05T00:11:09.650Z,10.50
2023-03-05T00:13:37.097Z,10.20
2023-03-05T00:16:09.161Z,11.10
2023-03-05T00:18:36.543Z,10.40
2023-03-05T00:21:03.874Z,10.98
2023-03-05T00:23:30.694Z,10.25
2023-03-05T00:26:00.540Z,10.98
2023-03-05T00:28:27.417Z,10.70
2023-03-05T00:30:54.137Z,11.65
2023-03-05T00:33:20.774Z,11.35
2023-03-05T00:35:47.460Z,10.85
2023-03-05T00:38:14.329Z,10.93
2023-03-05T00:40:42.082Z,11.38
2023-03-05T00:43:09.326Z,10.68
2023-03-05T00:45:36.622Z,11.00
2023-03-05T00:48:04.751Z,12.95
2023-03-05T00:50:31.369Z,10.70
2023-03-05T00:52:58.015Z,10.48
2023-03-05T00:55:24.705Z,10.45
2023-03-05T00:57:51.402Z,12.10
2023-03-05T01:00:18.371Z,10.50
2023-03-05T01:02:45.055Z,9.90
2023-03-05T01:05:13.219Z,10.38
2023-03-05T01:07:40.733Z,10.63
2023-03-05T01:10:08.673Z,10.50
2023-03-05T01:12:35.564Z,10.10
2023-03-05T01:15:02.694Z,10.27
2023-03-05T01:17:29.391Z,11.10
2023-03-05T01:19:57.106Z,10.18
2023-03-05T01:22:23.795Z,10.15
2023-03-05T01:24:50.425Z,10.40
2023-03-05T01:27:17.068Z,9.90
2023-03-05T01:29:43.702Z,10.50
2023-03-05T01:32:10.425Z,9.18
2023-03-05T01:34:37.797Z,9.50
2023-03-05T01:37:04.664Z,10.20
2023-03-05T01:39:31.359Z,11.18
2023-03-05T01:41:58.029Z,9.55
2023-03-05T01:44:27.953Z,9.85
2023-03-05T01:46:54.640Z,10.00
2023-03-05T01:49:35.407Z,8.60
2023-03-05T01:52:17.567Z,8.60
2023-03-05T01:54:52.214Z,7.90
2023-03-05T01:57:50.260Z,7.70
2023-03-05T02:00:25.136Z,8.20
2023-03-05T02:02:52.407Z,8.80
2023-03-05T02:05:26.865Z,8.05
2023-03-05T02:07:55.570Z,8.35
2023-03-05T02:10:26.312Z,8.38
2023-03-05T02:12:56.107Z,9.20
2023-03-05T02:15:23.003Z,8.63
2023-03-05T02:17:49.925Z,8.80
2023-03-05T02:20:29.810Z,8.95
2023-03-05T02:22:56.852Z,9.75
2023-03-05T02:25:28.983Z,8.95
2023-03-05T02:28:22.340Z,8.57
2023-03-05T02:30:49.335Z,8.57
2023-03-05T02:33:18.286Z,9.05
2023-03-05T02:35:46.371Z,9.15
2023-03-05T02:38:15.888Z,8.90
2023-03-05T02:40:43.073Z,9.70
2023-03-05T02:43:10.333Z,10.15
2023-03-05T02:45:38.306Z,10.65
2023-03-05T02:48:05.440Z,9.75
2023-03-05T02:50:33.096Z,9.00
2023-03-05T02:52:59.747Z,10.40
2023-03-05T02:55:26.404Z,9.23
2023-03-05T02:57:53.085Z,8.65
2023-03-05T03:00:19.965Z,10.25
2023-03-05T03:02:46.609Z,10.25
2023-03-05T03:05:13.252Z,8.93
2023-03-05T03:07:39.954Z,9.40
2023-03-05T03:10:07.291Z,8.32
2023-03-05T03:12:41.358Z,9.10
2023-03-05T03:15:09.353Z,8.15
2023-03-05T03:17:37.353Z,8.05
2023-03-05T03:20:06.734Z,8.43
2023-03-05T03:22:33.447Z,8.63
2023-03-05T03:25:01.220Z,8.73
2023-03-05T03:27:27.877Z,8.27
2023-03-05T03:29:54.532Z,9.30
2023-03-05T03:36:03.477Z,8.23
2023-03-05T03:38:30.095Z,9.23
2023-03-05T03:40:56.672Z,8.70
2023-03-05T03:43:23.277Z,9.20
2023-03-05T03:45:49.943Z,8.18
2023-03-05T03:48:16.583Z,10.00
2023-03-05T03:50:43.815Z,8.85
2023-03-05T03:53:14.337Z,9.25
2023-03-05T03:55:46.384Z,8.52
2023-03-05T03:58:13.039Z,9.35
2023-03-05T04:00:41.013Z,8.93
2023-03-05T04:03:08.474Z,10.07
2023-03-05T04:05:35.164Z,9.18
2023-03-05T04:08:01.837Z,10.10
2023-03-05T04:10:28.463Z,9.00
2023-03-05T04:12:55.120Z,9.05
2023-03-05T04:15:21.768Z,8.77
2023-03-05T04:17:48.477Z,8.63
2023-03-05T04:20:15.141Z,9.30
2023-03-05T04:22:41.846Z,9.15
2023-03-05T04:25:09.681Z,10.25
2023-03-05T04:27:37.879Z,11.13
2023-03-05T04:30:05.116Z,8.60
2023-03-05T04:32:31.914Z,10.30
2023-03-05T04:34:58.618Z,10.02
2023-03-05T04:37:25.975Z,9.65
2023-03-05T04:39:53.468Z,9.70
2023-03-05T04:42:21.137Z,9.05
2023-03-05T04:44:49.510Z,10.70
2023-03-05T04:47:16.873Z,9.65
2023-03-05T04:49:43.650Z,9.50
2023-03-05T04:52:14.699Z,9.80
2023-03-05T04:54:41.480Z,9.40
2023-03-05T04:57:08.183Z,9.32
2023-03-05T04:59:34.820Z,9.60
2023-03-05T05:02:01.541Z,10.13
2023-03-05T05:04:28.241Z,8.70
2023-03-05T05:06:58.785Z,8.30
2023-03-05T05:09:26.183Z,8.55
2023-03-05T05:11:52.899Z,9.25
2023-03-05T05:14:20.396Z,8.38
2023-03-05T05:16:47.044Z,8.75
2023-03-05T05:19:13.843Z,8.63
2023-03-05T05:21:40.592Z,9.40
2023-03-05T05:24:07.538Z,8.23
2023-03-05T05:26:34.261Z,8.30
2023-03-05T05:29:00.954Z,8.48
2023-03-05T05:31:27.816Z,9.15
2023-03-05T05:33:54.554Z,9.85
2023-03-05T05:36:22.357Z,8.50
2023-03-05T05:38:49.183Z,8.75
2023-03-05T05:41:17.771Z,8.80
2023-03-05T05:43:44.583Z,8.88
2023-03-05T05:46:14.271Z,8.55
2023-03-05T05:48:41.382Z,8.80
2023-03-05T05:51:14.903Z,8.95
2023-03-05T05:53:42.182Z,8.13
2023-03-05T05:56:10.860Z,8.02
2023-03-05T05:58:39.031Z,7.90
2023-03-05T06:01:13.992Z,7.63
2023-03-05T06:03:40.724Z,7.43
2023-03-05T06:06:16.170Z,6.95
2023-03-05T06:08:43.216Z,7.63
2023-03-05T06:11:10.091Z,6.93
2023-03-05T06:13:37.465Z,7.80
2023-03-05T06:16:07.227Z,7.57
2023-03-05T06:18:34.854Z,8.45
2023-03-05T06:21:05.075Z,7.85
2023-03-05T06:23:32.187Z,7.80
2023-03-05T06:26:07.574Z,7.70
2023-03-05T06:28:35.177Z,7.40
2023-03-05T06:31:07.787Z,7.25
2023-03-05T06:33:35.254Z,8.25
2023-03-05T06:36:07.009Z,7.15
2023-03-05T06:38:34.500Z,8.55
2023-03-05T06:41:02.838Z,8.45
2023-03-05T06:43:29.533Z,8.05
2023-03-05T06:46:04.517Z,7.25
2023-03-05T06:48:31.454Z,7.30
2023-03-05T06:50:58.086Z,7.00
2023-03-05T06:53:25.794Z,7.63
2023-03-05T06:55:53.454Z,7.07
2023-03-05T06:58:20.721Z,6.30
2023-03-05T07:00:47.441Z,7.30
2023-03-05T07:03:14.310Z,7.65
2023-03-05T07:05:44.577Z,7.00
2023-03-05T07:08:11.234Z,8.27
2023-03-05T07:10:42.135Z,8.43
2023-03-05T07:13:10.324Z,8.77
2023-03-05T07:15:41.097Z,9.55
2023-03-05T07:18:08.122Z,8.82
2023-03-05T07:20:38.038Z,10.10
2023-03-05T07:23:04.803Z,10.02
2023-03-05T07:25:32.080Z,9.43
2023-03-05T07:27:58.816Z,10.40
2023-03-05T07:30:25.457Z,10.50
2023-03-05T07:32:52.129Z,10.60
2023-03-05T07:35:18.880Z,9.48
2023-03-05T07:37:45.552Z,10.52
2023-03-05T07:40:12.396Z,9.63
2023-03-05T07:42:39.062Z,9.55
2023-03-05T07:45:06.871Z,10.30
2023-03-05T07:47:33.504Z,9.30
2023-03-05T07:50:00.163Z,9.30
2023-03-05T07:52:26.832Z,9.60
2023-03-05T07:54:53.507Z,10.07
2023-03-05T07:57:20.120Z,9.13
2023-03-05T07:59:46.822Z,9.93
2023-03-05T08:02:14.007Z,9.02
2023-03-05T08:04:42.255Z,9.90
2023-03-05T08:07:09.264Z,10.07
2023-03-05T08:09:35.906Z,10.55
2023-03-05T08:12:02.619Z,10.57
2023-03-05T08:14:29.334Z,9.70
2023-03-05T08:16:56.012Z,10.60
2023-03-05T08:19:22.785Z,10.00
2023-03-05T08:21:49.491Z,10.52
2023-03-05T08:24:16.230Z,10.85
2023-03-05T08:26:43.211Z,9.75
2023-03-05T08:29:10.602Z,8.75
2023-03-05T08:31:38.327Z,9.13
2023-03-05T08:34:05.378Z,8.98
2023-03-05T08:36:32.022Z,9.65
2023-03-05T08:38:59.676Z,9.15
2023-03-05T08:41:26.458Z,10.02
2023-03-05T08:43:53.519Z,7.97
2023-03-05T08:46:20.531Z,8.75
2023-03-05T08:48:47.332Z,8.02
2023-03-05T08:51:20.160Z,9.55
2023-03-05T08:53:47.548Z,8.20
2023-03-05T08:56:15.100Z,7.90
2023-03-05T08:58:41.766Z,8.25
2023-03-05T09:01:08.411Z,9.32
2023-03-05T09:03:35.063Z,9.23
2023-03-05T09:06:04.407Z,7.35
2023-03-05T09:08:31.065Z,8.38
2023-03-05T09:10:57.775Z,7.38
2023-03-05T09:13:24.666Z,8.45
2023-03-05T09:16:03.219Z,7.45
2023-03-05T09:18:31.032Z,8.43
2023-03-05T09:20:58.014Z,8.50
2023-03-05T09:23:25.186Z,7.82
2023-03-05T09:25:51.835Z,8.73
2023-03-05T09:28:18.583Z,10.73
2023-03-05T09:30:45.221Z,7.55
2023-03-05T09:33:11.889Z,7.82
2023-03-05T09:35:38.618Z,8.52
2023-03-05T09:38:05.288Z,8.10
2023-03-05T09:40:43.747Z,8.73
2023-03-05T09:43:14.538Z,7.78
2023-03-05T09:46:11.096Z,8.25
2023-03-05T09:48:50.879Z,8.23
2023-03-05T09:51:27.871Z,7.82
2023-03-05T09:54:20.090Z,7.80
2023-03-05T09:56:56.814Z,7.38
2023-03-05T09:59:28.555Z,8.27
2023-03-05T10:02:05.385Z,7.07
2023-03-05T10:05:04.560Z,7.30
2023-03-05T10:07:33.979Z,8.07
2023-03-05T10:10:04.641Z,8.13
2023-03-05T10:12:42.224Z,7.88
2023-03-05T10:15:40.139Z,7.63
2023-03-05T10:18:24.875Z,7.82
2023-03-05T10:20:59.269Z,7.90
2023-03-05T10:23:43.024Z,7.45
2023-03-05T10:26:21.587Z,7.20
2023-03-05T10:29:03.462Z,7.60
2023-03-05T10:32:04.407Z,8.27
2023-03-05T10:34:50.086Z,8.30
2023-03-05T10:37:31.782Z,7.10
2023-03-05T10:40:23.784Z,7.32
2023-03-05T10:43:17.619Z,6.97
2023-03-05T10:45:47.458Z,6.80
2023-03-05T10:48:24.694Z,7.43
2023-03-05T10:50:57.084Z,6.93
2023-03-05T10:53:32.374Z,7.13
2023-03-05T10:56:04.054Z,7.20
2023-03-05T10:58:31.394Z,7.40
2023-03-05T11:01:23.747Z,7.32
2023-03-05T11:04:03.614Z,7.63
2023-03-05T11:06:47.186Z,7.75
2023-03-05T11:09:29.203Z,6.80
2023-03-05T11:12:05.698Z,6.93
2023-03-05T11:14:33.578Z,7.60
2023-03-05T11:17:23.415Z,6.18
2023-03-05T11:19:50.105Z,6.35
2023-03-05T11:22:22.668Z,7.18
2023-03-05T11:25:10.528Z,6.55
2023-03-05T11:27:42.272Z,6.85
2023-03-05T11:30:27.453Z,6.55
2023-03-05T11:33:19.341Z,6.40
2023-03-05T11:35:47.352Z,6.93
2023-03-05T11:38:21.294Z,7.05
2023-03-05T11:40:49.438Z,7.00
2023-03-05T11:43:22.099Z,6.65
2023-03-05T11:46:02.418Z,6.68
2023-03-05T11:48:38.389Z,6.05
2023-03-05T11:51:31.522Z,6.55
2023-03-05T11:54:06.189Z,7.30
2023-03-05T11:56:37.325Z,6.43
2023-03-05T11:59:22.275Z,7.20
2023-03-05T12:01:54.256Z,6.45
2023-03-05T12:04:22.146Z,6.15
2023-03-05T12:06:54.361Z,6.28
2023-03-05T12:09:31.539Z,6.53
2023-03-05T12:12:23.528Z,7.20
2023-03-05T12:15:02.677Z,6.97
2023-03-05T12:17:39.825Z,6.93
2023-03-05T12:20:40.361Z,7.88
2023-03-05T12:23:12.327Z,6.40
2023-03-05T12:25:48.915Z,6.80
2023-03-05T12:28:37.086Z,7.20
2023-03-05T12:31:24.790Z,6.40
2023-03-05T12:33:51.489Z,6.15
2023-03-05T12:36:21.223Z,6.70
2023-03-05T12:38:54.718Z,6.25
2023-03-05T12:41:25.907Z,6.03
2023-03-05T12:44:06.481Z,6.57
2023-03-05T12:46:35.706Z,6.20
2023-03-05T12:49:38.230Z,6.57
2023-03-05T12:52:12.601Z,6.03
2023-03-05T12:54:41.868Z,6.45
2023-03-05T12:57:26.547Z,6.13
2023-03-05T13:00:40.516Z,6.88
2023-03-05T13:03:12.386Z,5.95
2023-03-05T13:05:39.374Z,6.55
2023-03-05T13:08:14.843Z,6.40
2023-03-05T13:10:42.689Z,6.57
2023-03-05T13:13:14.668Z,5.72
2023-03-05T13:15:46.484Z,6.38
2023-03-05T13:18:20.233Z,6.35
2023-03-05T13:20:50.799Z,6.28
2023-03-05T13:23:26.530Z,6.03
2023-03-05T13:26:18.655Z,6.55
2023-03-05T13:29:05.481Z,5.80
2023-03-05T13:31:33.670Z,5.97
2023-03-05T13:34:32.098Z,5.72
2023-03-05T13:37:14.546Z,6.60
2023-03-05T13:39:55.127Z,6.35
2023-03-05T13:42:26.201Z,6.60
2023-03-05T13:45:17.129Z,6.00
2023-03-05T13:48:01.392Z,6.75
2023-03-05T13:50:29.776Z,6.82
2023-03-05T13:53:13.236Z,6.85
2023-03-05T13:55:39.864Z,6.32
2023-03-05T13:58:06.653Z,7.45
2023-03-05T14:00:38.976Z,6.32
2023-03-05T14:03:20.624Z,7.13
2023-03-05T14:05:49.984Z,7.43
2023-03-05T14:08:23.956Z,6.90
2023-03-05T14:10:51.800Z,7.50
2023-03-05T14:13:29.343Z,6.40
2023-03-05T14:16:34.461Z,6.57
2023-03-05T14:19:09.102Z,6.20
2023-03-05T14:21:50.468Z,6.20
2023-03-05T14:24:23.380Z,6.20
2023-03-05T14:26:52.546Z,6.15
2023-03-05T14:29:23.582Z,6.25
2023-03-05T14:32:06.132Z,6.35
2023-03-05T14:34:41.634Z,6.30
2023-03-05T14:37:25.192Z,7.25
2023-03-05T14:40:08.205Z,6.65
2023-03-05T14:42:39.514Z,6.47
2023-03-05T14:45:24.024Z,6.13
2023-03-05T14:47:52.382Z,5.90
2023-03-05T14:50:34.630Z,5.93
2023-03-05T14:53:04.238Z,6.18
2023-03-05T14:55:32.030Z,7.25
2023-03-05T14:58:12.377Z,6.25
2023-03-05T15:00:39.022Z,6.47
2023-03-05T15:03:05.836Z,6.32
2023-03-05T15:05:33.007Z,6.05
2023-03-05T15:08:00.658Z,6.35
2023-03-05T15:10:27.333Z,6.30
2023-03-05T15:12:54.059Z,5.90
2023-03-05T15:15:21.871Z,5.72
2023-03-05T15:17:52.194Z,5.80
2023-03-05T15:20:25.613Z,5.90
2023-03-05T15:22:53.033Z,6.40
2023-03-05T15:25:21.462Z,6.45
2023-03-05T15:27:48.590Z,6.28
2023-03-05T15:30:23.304Z,6.35
2023-03-05T15:32:51.242Z,6.10
2023-03-05T15:35:18.011Z,6.72
2023-03-05T15:37:44.681Z,5.90
2023-03-05T15:40:12.646Z,6.20
2023-03-05T15:42:39.913Z,6.60
2023-03-05T15:45:07.380Z,6.25
2023-03-05T15:47:34.024Z,6.82
2023-03-05T15:50:00.730Z,6.00
2023-03-05T15:52:27.402Z,6.28
2023-03-05T15:54:54.046Z,6.82
2023-03-05T15:57:24.237Z,6.40
2023-03-05T15:59:50.883Z,6.40
2023-03-05T16:02:18.707Z,6.28
2023-03-05T16:04:45.359Z,6.53
2023-03-05T16:07:14.548Z,6.63
2023-03-05T16:09:49.466Z,6.32
2023-03-05T16:12:27.807Z,5.82
2023-03-05T16:14:54.501Z,6.65
2023-03-05T16:17:23.455Z,6.95
2023-03-05T16:19:54.475Z,6.53
2023-03-05T16:22:21.108Z,6.60
2023-03-05T16:24:47.787Z,6.72
2023-03-05T16:27:14.442Z,7.43
2023-03-05T16:29:41.088Z,8.15
2023-03-05T16:32:07.844Z,6.97
2023-03-05T16:34:34.886Z,7.50
2023-03-05T16:37:04.405Z,7.20
2023-03-05T16:39:31.121Z,6.95
2023-03-05T16:41:57.791Z,6.13
2023-03-05T16:44:24.809Z,6.55
2023-03-05T16:46:53.197Z,6.40
2023-03-05T16:49:23.047Z,6.55
2023-03-05T16:51:49.705Z,6.50
2023-03-05T16:54:16.322Z,6.80
2023-03-05T16:56:43.026Z,6.30
2023-03-05T16:59:09.709Z,6.93
2023-03-05T17:01:36.346Z,7.60
2023-03-05T17:04:03.641Z,8.18
2023-03-05T17:06:31.487Z,7.78
2023-03-05T17:08:58.620Z,6.55
2023-03-05T17:11:25.857Z,7.15
2023-03-05T17:13:52.896Z,6.70
2023-03-05T17:16:20.520Z,7.60
2023-03-05T17:18:47.960Z,7.13
2023-03-05T17:21:15.466Z,6.82
2023-03-05T17:23:42.656Z,6.55
2023-03-05T17:26:13.625Z,6.85
2023-03-05T17:28:41.176Z,7.28
2023-03-05T17:31:08.452Z,7.40
2023-03-05T17:33:35.942Z,6.65
2023-03-05T17:36:03.335Z,7.10
2023-03-05T17:38:30.417Z,7.18
2023-03-05T17:40:57.213Z,6.93
2023-03-05T17:43:24.504Z,6.90
2023-03-05T17:45:51.234Z,7.32
2023-03-05T17:48:17.916Z,7.15
2023-03-05T17:50:45.138Z,7.65
2023-03-05T17:53:12.435Z,7.28
2023-03-05T17:55:39.739Z,7.55
2023-03-05T17:58:06.734Z,7.75
2023-03-05T18:00:34.472Z,7.15
2023-03-05T18:03:01.318Z,8.25
2023-03-05T18:05:29.055Z,8.15
2023-03-05T18:07:56.295Z,8.05
2023-03-05T18:10:26.080Z,8.27
2023-03-05T18:12:52.946Z,7.88
2023-03-05T18:15:21.758Z,7.55
2023-03-05T18:17:48.416Z,8.20
2023-03-05T18:20:24.623Z,8.43
2023-03-05T18:22:51.755Z,9.10
2023-03-05T18:25:18.518Z,8.90
2023-03-05T18:27:45.139Z,9.30
2023-03-05T18:30:12.123Z,8.80
2023-03-05T18:32:38.805Z,9.32
2023-03-05T18:35:06.409Z,8.30
2023-03-05T18:37:33.154Z,9.10
2023-03-05T18:40:00.313Z,8.00
2023-03-05T18:42:26.995Z,8.38
2023-03-05T18:44:53.640Z,8.65
2023-03-05T18:47:20.606Z,8.25
2023-03-05T18:49:47.226Z,8.38
2023-03-05T18:52:13.857Z,8.38
2023-03-05T18:54:40.525Z,7.70
2023-03-05T18:57:07.129Z,9.05
2023-03-05T18:59:33.752Z,7.15
2023-03-05T19:02:00.360Z,7.85
2023-03-05T19:04:27.554Z,8.75
2023-03-05T19:06:54.346Z,7.13
2023-03-05T19:09:30.945Z,8.60
2023-03-05T19:11:57.602Z,8.57
2023-03-05T19:14:24.297Z,8.77
2023-03-05T19:16:50.973Z,8.07
2023-03-05T19:19:23.050Z,7.90
2023-03-05T19:21:59.702Z,9.27
2023-03-05T19:24:28.958Z,7.78
2023-03-05T19:27:00.159Z,8.65
2023-03-05T19:29:32.680Z,8.23
2023-03-05T19:31:59.373Z,8.05
2023-03-05T19:34:26.083Z,9.45
2023-03-05T19:36:52.706Z,8.85
2023-03-05T19:39:19.859Z,8.70
2023-03-05T19:41:46.519Z,9.07
2023-03-05T19:44:13.333Z,8.38
2023-03-05T19:46:41.825Z,9.10
2023-03-05T19:49:08.646Z,9.07
2023-03-05T19:51:35.722Z,9.18
2023-03-05T19:54:04.356Z,9.25
2023-03-05T19:56:30.972Z,8.95
2023-03-05T19:58:57.629Z,8.98
2023-03-05T20:01:26.829Z,9.30
2023-03-05T20:03:56.318Z,9.02
2023-03-05T20:06:23.875Z,9.45
2023-03-05T20:08:51.166Z,9.75
2023-03-05T20:11:19.677Z,8.80
2023-03-05T20:13:46.682Z,8.95
2023-03-05T20:16:27.931Z,9.30
2023-03-05T20:18:55.172Z,9.25
2023-03-05T20:21:29.055Z,9.30
2023-03-05T20:23:57.871Z,9.43
2023-03-05T20:26:25.954Z,9.27
2023-03-05T20:28:53.273Z,9.60
2023-03-05T20:31:22.348Z,9.70
2023-03-05T20:33:49.203Z,9.20
2023-03-05T20:36:15.880Z,9.70
2023-03-05T20:38:44.274Z,9.55
2023-03-05T20:41:14.016Z,9.23
2023-03-05T20:43:44.717Z,9.27
2023-03-05T20:46:52.522Z,9.02
2023-03-05T20:49:19.949Z,9.02
2023-03-05T20:51:48.985Z,9.00
2023-03-05T20:54:15.749Z,9.55
2023-03-05T20:56:42.914Z,10.68
2023-03-05T20:59:10.780Z,9.40
2023-03-05T21:01:39.185Z,9.85
2023-03-05T21:04:06.594Z,10.25
2023-03-05T21:06:33.614Z,9.43
2023-03-05T21:09:00.537Z,9.30
2023-03-05T21:11:27.300Z,9.25
2023-03-05T21:13:54.185Z,8.85
2023-03-05T21:16:23.318Z,8.85
2023-03-05T21:18:51.064Z,8.75
2023-03-05T21:21:18.503Z,8.38
2023-03-05T21:23:45.396Z,8.73
2023-03-05T21:26:13.401Z,8.15
2023-03-05T21:28:40.746Z,7.70
2023-03-05T21:31:15.171Z,8.15
2023-03-05T21:33:42.165Z,8.98
2023-03-05T21:36:09.093Z,8.10
2023-03-05T21:38:35.852Z,8.90
2023-03-05T21:41:03.651Z,9.10
2023-03-05T21:43:33.489Z,8.40
2023-03-05T21:46:02.910Z,8.10
2023-03-05T21:48:29.950Z,8.43
2023-03-05T21:50:57.192Z,8.65
2023-03-05T21:53:24.213Z,7.80
2023-03-05T21:56:03.127Z,9.02
2023-03-05T21:58:34.311Z,9.65
2023-03-05T22:01:01.428Z,8.50
2023-03-05T22:03:28.902Z,8.20
2023-03-05T22:05:56.915Z,8.23
2023-03-05T22:08:24.450Z,8.25
2023-03-05T22:10:51.726Z,8.20
2023-03-05T22:13:20.035Z,8.88
2023-03-05T22:15:49.444Z,7.60
2023-03-05T22:18:19.238Z,7.88
2023-03-05T22:20:46.507Z,8.98
2023-03-05T22:23:13.658Z,8.52
2023-03-05T22:25:40.873Z,8.15
2023-03-05T22:28:09.214Z,8.50
2023-03-05T22:30:35.965Z,8.27
2023-03-05T22:35:42.096Z,9.02
2023-03-05T22:38:10.011Z,9.32
2023-03-05T22:40:40.435Z,10.00
2023-03-05T22:43:07.086Z,9.05
2023-03-05T22:45:33.830Z,9.50
2023-03-05T22:48:00.527Z,9.20
2023-03-05T22:50:27.210Z,9.15
2023-03-05T22:52:53.852Z,9.35
2023-03-05T22:55:20.824Z,8.93
2023-03-05T22:57:47.685Z,8.95
2023-03-05T23:00:18.241Z,9.43
2023-03-05T23:02:45.260Z,9.00
2023-03-05T23:05:12.237Z,9.30
2023-03-05T23:07:41.119Z,9.38
2023-03-05T23:10:20.875Z,9.95
2023-03-05T23:12:50.634Z,8.57
2023-03-05T23:15:21.340Z,9.95
2023-03-05T23:17:48.159Z,8.73
2023-03-05T23:20:17.752Z,8.68
2023-03-05T23:22:45.623Z,9.88
2023-03-05T23:25:14.072Z,8.48
2023-03-05T23:27:41.203Z,8.88
2023-03-05T23:30:24.532Z,8.40
2023-03-05T23:33:06.575Z,9.68
2023-03-05T23:35:38.858Z,8.20
2023-03-05T23:38:12.119Z,8.93
2023-03-05T23:40:50.098Z,8.68
2023-03-05T23:43:18.756Z,8.85
2023-03-05T23:45:48.247Z,9.55
2023-03-05T23:48:17.923Z,8.45
2023-03-05T23:50:47.787Z,8.40
2023-03-05T23:53:27.759Z,9.10
2023-03-05T23:55:55.595Z,9.13
2023-03-05T23:58:23.186Z,8.95
